sensor_id;sensor_type;location;lat;lon;timestamp;P1;durP1;ratioP1;P2;durP2;ratioP2
22916;SDS011;11624;53.250;7.456;2023-08-12T00:00:33;35.42;;;18.08;;
22916;SDS011;11624;53.250;7.456;2023-08-12T00:03:03;30.60;;;17.13;;
22916;SDS011;11624;53.250;7.456;2023-08-12T00:05:32;34.15;;;17.50;;
22916;SDS011;11624;53.250;7.456;2023-08-12T00:08:02;37.03;;;19.83;;
22916;SDS011;11624;53.250;7.456;2023-08-12T00:10:32;34.92;;;18.92;;
22916;SDS011;11624;53.250;7.456;2023-08-12T00:13:00;39.85;;;19.90;;
22916;SDS011;11624;53.250;7.456;2023-08-12T00:15:29;41.70;;;20.20;;
22916;SDS011;11624;53.250;7.456;2023-08-12T00:17:57;35.03;;;20.30;;
22916;SDS011;11624;53.250;7.456;2023-08-12T00:20:26;39.92;;;22.08;;
22916;SDS011;11624;53.250;7.456;2023-08-12T00:22:54;38.33;;;21.02;;
22916;SDS011;11624;53.250;7.456;2023-08-12T00:25:22;38.92;;;21.27;;
22916;SDS011;11624;53.250;7.456;2023-08-12T00:27:52;43.85;;;21.10;;
22916;SDS011;11624;53.250;7.456;2023-08-12T00:30:21;41.13;;;21.70;;
22916;SDS011;11624;53.250;7.456;2023-08-12T00:32:49;38.75;;;21.92;;
22916;SDS011;11624;53.250;7.456;2023-08-12T00:35:18;40.75;;;22.17;;
22916;SDS011;11624;53.250;7.456;2023-08-12T00:37:46;38.80;;;22.00;;
22916;SDS011;11624;53.250;7.456;2023-08-12T00:40:15;39.03;;;20.77;;
22916;SDS011;11624;53.250;7.456;2023-08-12T00:42:43;38.60;;;21.00;;
22916;SDS011;11624;53.250;7.456;2023-08-12T00:45:14;40.55;;;20.88;;
22916;SDS011;11624;53.250;7.456;2023-08-12T00:47:43;36.85;;;20.08;;
22916;SDS011;11624;53.250;7.456;2023-08-12T00:50:12;33.45;;;20.83;;
22916;SDS011;11624;53.250;7.456;2023-08-12T00:52:42;37.90;;;20.10;;
22916;SDS011;11624;53.250;7.456;2023-08-12T00:55:12;35.78;;;20.52;;
22916;SDS011;11624;53.250;7.456;2023-08-12T00:57:41;34.78;;;18.92;;
22916;SDS011;11624;53.250;7.456;2023-08-12T01:00:10;35.10;;;20.10;;
22916;SDS011;11624;53.250;7.456;2023-08-12T01:02:40;36.55;;;20.67;;
22916;SDS011;11624;53.250;7.456;2023-08-12T01:05:15;34.53;;;18.98;;
22916;SDS011;11624;53.250;7.456;2023-08-12T01:07:43;46.85;;;20.83;;
22916;SDS011;11624;53.250;7.456;2023-08-12T01:10:13;35.63;;;19.63;;
22916;SDS011;11624;53.250;7.456;2023-08-12T01:12:44;39.70;;;19.92;;
22916;SDS011;11624;53.250;7.456;2023-08-12T01:15:19;36.30;;;20.42;;
22916;SDS011;11624;53.250;7.456;2023-08-12T01:17:52;35.20;;;20.58;;
22916;SDS011;11624;53.250;7.456;2023-08-12T01:20:23;36.08;;;19.40;;
22916;SDS011;11624;53.250;7.456;2023-08-12T01:22:56;39.80;;;20.58;;
22916;SDS011;11624;53.250;7.456;2023-08-12T01:25:27;39.90;;;20.92;;
22916;SDS011;11624;53.250;7.456;2023-08-12T01:27:56;34.60;;;20.48;;
22916;SDS011;11624;53.250;7.456;2023-08-12T01:30:26;35.05;;;18.77;;
22916;SDS011;11624;53.250;7.456;2023-08-12T01:32:56;34.92;;;19.52;;
22916;SDS011;11624;53.250;7.456;2023-08-12T01:35:33;34.65;;;18.85;;
22916;SDS011;11624;53.250;7.456;2023-08-12T01:38:04;31.80;;;17.58;;
22916;SDS011;11624;53.250;7.456;2023-08-12T01:40:37;37.53;;;18.50;;
22916;SDS011;11624;53.250;7.456;2023-08-12T01:43:07;32.55;;;17.75;;
22916;SDS011;11624;53.250;7.456;2023-08-12T01:45:36;31.83;;;17.45;;
22916;SDS011;11624;53.250;7.456;2023-08-12T01:48:05;31.05;;;17.00;;
22916;SDS011;11624;53.250;7.456;2023-08-12T01:50:34;34.75;;;16.85;;
22916;SDS011;11624;53.250;7.456;2023-08-12T01:53:03;33.40;;;16.48;;
22916;SDS011;11624;53.250;7.456;2023-08-12T01:55:32;31.17;;;15.75;;
22916;SDS011;11624;53.250;7.456;2023-08-12T01:58:01;28.98;;;16.13;;
22916;SDS011;11624;53.250;7.456;2023-08-12T02:00:30;27.48;;;15.48;;
22916;SDS011;11624;53.250;7.456;2023-08-12T02:02:59;27.85;;;16.35;;
22916;SDS011;11624;53.250;7.456;2023-08-12T02:05:27;28.20;;;14.45;;
22916;SDS011;11624;53.250;7.456;2023-08-12T02:07:56;26.25;;;13.90;;
22916;SDS011;11624;53.250;7.456;2023-08-12T02:10:24;28.60;;;13.75;;
22916;SDS011;11624;53.250;7.456;2023-08-12T02:12:53;24.73;;;13.55;;
22916;SDS011;11624;53.250;7.456;2023-08-12T02:15:23;25.90;;;13.70;;
22916;SDS011;11624;53.250;7.456;2023-08-12T02:17:51;25.40;;;13.00;;
22916;SDS011;11624;53.250;7.456;2023-08-12T02:20:19;25.30;;;13.18;;
22916;SDS011;11624;53.250;7.456;2023-08-12T02:22:48;28.20;;;13.15;;
22916;SDS011;11624;53.250;7.456;2023-08-12T02:25:16;27.13;;;14.02;;
22916;SDS011;11624;53.250;7.456;2023-08-12T02:27:45;27.73;;;13.15;;
22916;SDS011;11624;53.250;7.456;2023-08-12T02:30:13;32.40;;;15.35;;
22916;SDS011;11624;53.250;7.456;2023-08-12T02:32:43;30.85;;;14.35;;
22916;SDS011;11624;53.250;7.456;2023-08-12T02:35:14;30.38;;;15.07;;
22916;SDS011;11624;53.250;7.456;2023-08-12T02:37:43;27.67;;;14.07;;
22916;SDS011;11624;53.250;7.456;2023-08-12T02:40:11;25.23;;;13.80;;
22916;SDS011;11624;53.250;7.456;2023-08-12T02:42:40;27.27;;;14.38;;
22916;SDS011;11624;53.250;7.456;2023-08-12T02:45:08;29.40;;;14.75;;
22916;SDS011;11624;53.250;7.456;2023-08-12T02:47:37;28.83;;;14.23;;
22916;SDS011;11624;53.250;7.456;2023-08-12T02:50:08;26.42;;;14.07;;
22916;SDS011;11624;53.250;7.456;2023-08-12T02:52:36;26.05;;;13.27;;
22916;SDS011;11624;53.250;7.456;2023-08-12T02:55:05;25.90;;;13.90;;
22916;SDS011;11624;53.250;7.456;2023-08-12T02:57:34;29.20;;;13.50;;
22916;SDS011;11624;53.250;7.456;2023-08-12T03:00:02;23.10;;;12.82;;
22916;SDS011;11624;53.250;7.456;2023-08-12T03:02:32;32.05;;;14.32;;
22916;SDS011;11624;53.250;7.456;2023-08-12T03:07:34;25.15;;;11.95;;
22916;SDS011;11624;53.250;7.456;2023-08-12T03:10:03;25.50;;;12.27;;
22916;SDS011;11624;53.250;7.456;2023-08-12T03:12:31;24.48;;;11.85;;
22916;SDS011;11624;53.250;7.456;2023-08-12T03:15:00;23.17;;;12.20;;
22916;SDS011;11624;53.250;7.456;2023-08-12T03:17:28;22.05;;;11.32;;
22916;SDS011;11624;53.250;7.456;2023-08-12T03:19:57;22.73;;;11.77;;
22916;SDS011;11624;53.250;7.456;2023-08-12T03:22:29;22.20;;;10.65;;
22916;SDS011;11624;53.250;7.456;2023-08-12T03:24:59;22.35;;;11.75;;
22916;SDS011;11624;53.250;7.456;2023-08-12T03:27:27;25.52;;;10.90;;
22916;SDS011;11624;53.250;7.456;2023-08-12T03:29:55;20.80;;;11.02;;
22916;SDS011;11624;53.250;7.456;2023-08-12T03:32:23;22.52;;;9.55;;
22916;SDS011;11624;53.250;7.456;2023-08-12T03:34:52;20.05;;;9.55;;
22916;SDS011;11624;53.250;7.456;2023-08-12T03:37:20;20.13;;;9.75;;
22916;SDS011;11624;53.250;7.456;2023-08-12T03:39:51;22.30;;;9.07;;
22916;SDS011;11624;53.250;7.456;2023-08-12T03:42:21;20.08;;;9.70;;
22916;SDS011;11624;53.250;7.456;2023-08-12T03:44:49;20.35;;;9.20;;
22916;SDS011;11624;53.250;7.456;2023-08-12T03:47:18;19.30;;;8.82;;
22916;SDS011;11624;53.250;7.456;2023-08-12T03:49:50;20.50;;;9.40;;
22916;SDS011;11624;53.250;7.456;2023-08-12T03:52:19;19.95;;;9.35;;
22916;SDS011;11624;53.250;7.456;2023-08-12T03:54:47;21.02;;;9.30;;
22916;SDS011;11624;53.250;7.456;2023-08-12T03:57:15;16.80;;;8.88;;
22916;SDS011;11624;53.250;7.456;2023-08-12T03:59:44;23.80;;;9.25;;
22916;SDS011;11624;53.250;7.456;2023-08-12T04:02:13;19.17;;;8.98;;
22916;SDS011;11624;53.250;7.456;2023-08-12T04:04:41;18.02;;;8.75;;
22916;SDS011;11624;53.250;7.456;2023-08-12T04:07:10;20.17;;;9.95;;
22916;SDS011;11624;53.250;7.456;2023-08-12T04:09:39;18.67;;;9.02;;
22916;SDS011;11624;53.250;7.456;2023-08-12T04:12:07;19.73;;;9.18;;
22916;SDS011;11624;53.250;7.456;2023-08-12T04:14:35;18.98;;;8.85;;
22916;SDS011;11624;53.250;7.456;2023-08-12T04:17:05;20.20;;;9.77;;
22916;SDS011;11624;53.250;7.456;2023-08-12T04:19:33;18.33;;;8.75;;
22916;SDS011;11624;53.250;7.456;2023-08-12T04:22:02;18.75;;;8.50;;
22916;SDS011;11624;53.250;7.456;2023-08-12T04:24:31;17.17;;;7.60;;
22916;SDS011;11624;53.250;7.456;2023-08-12T04:26:59;20.73;;;8.55;;
22916;SDS011;11624;53.250;7.456;2023-08-12T04:29:27;18.52;;;8.60;;
22916;SDS011;11624;53.250;7.456;2023-08-12T04:31:55;18.83;;;7.75;;
22916;SDS011;11624;53.250;7.456;2023-08-12T04:34:25;19.80;;;8.70;;
22916;SDS011;11624;53.250;7.456;2023-08-12T04:36:53;17.92;;;8.32;;
22916;SDS011;11624;53.250;7.456;2023-08-12T04:39:21;17.92;;;8.45;;
22916;SDS011;11624;53.250;7.456;2023-08-12T04:41:50;18.58;;;8.18;;
22916;SDS011;11624;53.250;7.456;2023-08-12T04:44:18;22.77;;;8.40;;
22916;SDS011;11624;53.250;7.456;2023-08-12T04:46:46;18.98;;;8.65;;
22916;SDS011;11624;53.250;7.456;2023-08-12T04:49:16;17.75;;;8.18;;
22916;SDS011;11624;53.250;7.456;2023-08-12T04:51:45;17.75;;;8.30;;
22916;SDS011;11624;53.250;7.456;2023-08-12T04:54:14;24.42;;;8.45;;
22916;SDS011;11624;53.250;7.456;2023-08-12T04:56:42;19.90;;;8.10;;
22916;SDS011;11624;53.250;7.456;2023-08-12T04:59:10;21.67;;;8.50;;
22916;SDS011;11624;53.250;7.456;2023-08-12T05:01:38;22.58;;;8.65;;
22916;SDS011;11624;53.250;7.456;2023-08-12T05:04:24;18.30;;;8.38;;
22916;SDS011;11624;53.250;7.456;2023-08-12T05:06:54;21.13;;;8.90;;
22916;SDS011;11624;53.250;7.456;2023-08-12T05:09:24;20.00;;;7.95;;
22916;SDS011;11624;53.250;7.456;2023-08-12T05:11:52;22.55;;;7.97;;
22916;SDS011;11624;53.250;7.456;2023-08-12T05:14:20;20.90;;;8.13;;
22916;SDS011;11624;53.250;7.456;2023-08-12T05:16:48;20.90;;;8.88;;
22916;SDS011;11624;53.250;7.456;2023-08-12T05:19:17;21.17;;;9.13;;
22916;SDS011;11624;53.250;7.456;2023-08-12T05:21:45;18.65;;;8.18;;
22916;SDS011;11624;53.250;7.456;2023-08-12T05:24:15;17.73;;;8.40;;
22916;SDS011;11624;53.250;7.456;2023-08-12T05:26:43;19.80;;;8.82;;
22916;SDS011;11624;53.250;7.456;2023-08-12T05:29:11;18.50;;;8.45;;
22916;SDS011;11624;53.250;7.456;2023-08-12T05:31:39;20.65;;;8.32;;
22916;SDS011;11624;53.250;7.456;2023-08-12T05:34:08;20.40;;;8.20;;
22916;SDS011;11624;53.250;7.456;2023-08-12T05:36:36;19.67;;;8.70;;
22916;SDS011;11624;53.250;7.456;2023-08-12T05:39:04;24.25;;;9.07;;
22916;SDS011;11624;53.250;7.456;2023-08-12T05:41:33;18.67;;;8.20;;
22916;SDS011;11624;53.250;7.456;2023-08-12T05:44:02;22.80;;;9.48;;
22916;SDS011;11624;53.250;7.456;2023-08-12T05:46:30;20.60;;;9.30;;
22916;SDS011;11624;53.250;7.456;2023-08-12T05:48:58;22.52;;;8.57;;
22916;SDS011;11624;53.250;7.456;2023-08-12T05:51:26;21.98;;;8.57;;
22916;SDS011;11624;53.250;7.456;2023-08-12T05:53:56;19.23;;;8.55;;
22916;SDS011;11624;53.250;7.456;2023-08-12T05:56:24;20.13;;;8.93;;
22916;SDS011;11624;53.250;7.456;2023-08-12T05:58:53;22.02;;;9.48;;
22916;SDS011;11624;53.250;7.456;2023-08-12T06:01:21;20.52;;;8.88;;
22916;SDS011;11624;53.250;7.456;2023-08-12T06:03:50;20.13;;;9.40;;
22916;SDS011;11624;53.250;7.456;2023-08-12T06:06:18;17.58;;;9.32;;
22916;SDS011;11624;53.250;7.456;2023-08-12T06:08:46;22.92;;;9.98;;
22916;SDS011;11624;53.250;7.456;2023-08-12T06:11:14;18.15;;;8.57;;
22916;SDS011;11624;53.250;7.456;2023-08-12T06:13:42;22.23;;;9.88;;
22916;SDS011;11624;53.250;7.456;2023-08-12T06:16:12;18.58;;;8.90;;
22916;SDS011;11624;53.250;7.456;2023-08-12T06:18:40;17.58;;;8.93;;
22916;SDS011;11624;53.250;7.456;2023-08-12T06:21:08;19.88;;;8.95;;
22916;SDS011;11624;53.250;7.456;2023-08-12T06:23:36;19.38;;;9.07;;
22916;SDS011;11624;53.250;7.456;2023-08-12T06:26:04;18.38;;;9.13;;
22916;SDS011;11624;53.250;7.456;2023-08-12T06:28:33;20.40;;;9.20;;
22916;SDS011;11624;53.250;7.456;2023-08-12T06:31:01;17.42;;;9.07;;
22916;SDS011;11624;53.250;7.456;2023-08-12T06:33:30;20.70;;;9.75;;
22916;SDS011;11624;53.250;7.456;2023-08-12T06:35:58;19.55;;;9.75;;
22916;SDS011;11624;53.250;7.456;2023-08-12T06:38:27;22.70;;;10.23;;
22916;SDS011;11624;53.250;7.456;2023-08-12T06:40:55;23.88;;;10.18;;
22916;SDS011;11624;53.250;7.456;2023-08-12T06:43:23;26.13;;;10.25;;
22916;SDS011;11624;53.250;7.456;2023-08-12T06:45:55;19.30;;;9.90;;
22916;SDS011;11624;53.250;7.456;2023-08-12T06:48:23;24.00;;;10.00;;
22916;SDS011;11624;53.250;7.456;2023-08-12T06:50:54;21.83;;;10.55;;
22916;SDS011;11624;53.250;7.456;2023-08-12T06:53:22;20.88;;;9.65;;
22916;SDS011;11624;53.250;7.456;2023-08-12T06:55:52;22.23;;;10.85;;
22916;SDS011;11624;53.250;7.456;2023-08-12T06:58:20;19.52;;;9.48;;
22916;SDS011;11624;53.250;7.456;2023-08-12T07:00:48;21.58;;;10.05;;
22916;SDS011;11624;53.250;7.456;2023-08-12T07:03:18;23.42;;;10.68;;
22916;SDS011;11624;53.250;7.456;2023-08-12T07:05:47;21.80;;;10.00;;
22916;SDS011;11624;53.250;7.456;2023-08-12T07:08:16;20.40;;;10.32;;
22916;SDS011;11624;53.250;7.456;2023-08-12T07:10:45;20.83;;;10.02;;
22916;SDS011;11624;53.250;7.456;2023-08-12T07:13:13;18.90;;;9.70;;
22916;SDS011;11624;53.250;7.456;2023-08-12T07:15:41;21.38;;;10.52;;
22916;SDS011;11624;53.250;7.456;2023-08-12T07:18:09;20.17;;;10.55;;
22916;SDS011;11624;53.250;7.456;2023-08-12T07:20:37;21.08;;;11.15;;
22916;SDS011;11624;53.250;7.456;2023-08-12T07:23:05;19.58;;;10.65;;
22916;SDS011;11624;53.250;7.456;2023-08-12T07:25:35;21.58;;;10.10;;
22916;SDS011;11624;53.250;7.456;2023-08-12T07:28:03;22.20;;;10.48;;
22916;SDS011;11624;53.250;7.456;2023-08-12T07:30:33;20.48;;;10.70;;
22916;SDS011;11624;53.250;7.456;2023-08-12T07:33:02;20.75;;;9.93;;
22916;SDS011;11624;53.250;7.456;2023-08-12T07:35:31;23.40;;;9.27;;
22916;SDS011;11624;53.250;7.456;2023-08-12T07:38:00;17.85;;;9.00;;
22916;SDS011;11624;53.250;7.456;2023-08-12T07:40:28;22.05;;;9.43;;
22916;SDS011;11624;53.250;7.456;2023-08-12T07:42:57;19.35;;;9.25;;
22916;SDS011;11624;53.250;7.456;2023-08-12T07:45:25;18.17;;;9.60;;
22916;SDS011;11624;53.250;7.456;2023-08-12T07:47:54;18.65;;;9.98;;
22916;SDS011;11624;53.250;7.456;2023-08-12T07:50:22;23.30;;;10.77;;
22916;SDS011;11624;53.250;7.456;2023-08-12T07:52:50;21.35;;;10.10;;
22916;SDS011;11624;53.250;7.456;2023-08-12T07:55:18;20.17;;;10.73;;
22916;SDS011;11624;53.250;7.456;2023-08-12T07:57:46;22.67;;;12.15;;
22916;SDS011;11624;53.250;7.456;2023-08-12T08:00:16;25.15;;;12.57;;
22916;SDS011;11624;53.250;7.456;2023-08-12T08:02:45;23.17;;;13.40;;
22916;SDS011;11624;53.250;7.456;2023-08-12T08:05:13;23.15;;;13.32;;
22916;SDS011;11624;53.250;7.456;2023-08-12T08:07:41;25.00;;;14.18;;
22916;SDS011;11624;53.250;7.456;2023-08-12T08:10:10;25.77;;;14.88;;
22916;SDS011;11624;53.250;7.456;2023-08-12T08:12:38;24.92;;;15.23;;
22916;SDS011;11624;53.250;7.456;2023-08-12T08:15:06;30.85;;;16.00;;
22916;SDS011;11624;53.250;7.456;2023-08-12T08:17:36;29.20;;;16.75;;
22916;SDS011;11624;53.250;7.456;2023-08-12T08:20:05;28.30;;;17.05;;
22916;SDS011;11624;53.250;7.456;2023-08-12T08:22:34;28.92;;;18.60;;
22916;SDS011;11624;53.250;7.456;2023-08-12T08:25:03;29.55;;;17.98;;
22916;SDS011;11624;53.250;7.456;2023-08-12T08:27:31;32.50;;;18.13;;
22916;SDS011;11624;53.250;7.456;2023-08-12T08:29:59;32.15;;;17.33;;
22916;SDS011;11624;53.250;7.456;2023-08-12T08:32:29;31.58;;;19.83;;
22916;SDS011;11624;53.250;7.456;2023-08-12T08:34:59;33.58;;;21.17;;
22916;SDS011;11624;53.250;7.456;2023-08-12T08:37:27;35.13;;;21.88;;
22916;SDS011;11624;53.250;7.456;2023-08-12T08:39:55;36.47;;;22.23;;
22916;SDS011;11624;53.250;7.456;2023-08-12T08:42:24;38.95;;;22.73;;
22916;SDS011;11624;53.250;7.456;2023-08-12T08:44:52;34.13;;;21.58;;
22916;SDS011;11624;53.250;7.456;2023-08-12T08:47:22;35.35;;;23.17;;
22916;SDS011;11624;53.250;7.456;2023-08-12T08:49:53;36.33;;;22.85;;
22916;SDS011;11624;53.250;7.456;2023-08-12T08:52:24;40.38;;;25.30;;
22916;SDS011;11624;53.250;7.456;2023-08-12T08:54:52;34.70;;;22.20;;
22916;SDS011;11624;53.250;7.456;2023-08-12T08:57:20;37.35;;;23.65;;
22916;SDS011;11624;53.250;7.456;2023-08-12T09:00:09;36.83;;;24.08;;
22916;SDS011;11624;53.250;7.456;2023-08-12T09:02:42;33.92;;;23.35;;
22916;SDS011;11624;53.250;7.456;2023-08-12T09:05:11;36.85;;;24.58;;
22916;SDS011;11624;53.250;7.456;2023-08-12T09:07:43;49.40;;;25.15;;
22916;SDS011;11624;53.250;7.456;2023-08-12T09:18:07;37.88;;;22.73;;
22916;SDS011;11624;53.250;7.456;2023-08-12T09:20:35;35.92;;;23.90;;
22916;SDS011;11624;53.250;7.456;2023-08-12T09:23:05;36.78;;;23.92;;
22916;SDS011;11624;53.250;7.456;2023-08-12T09:25:35;36.38;;;23.20;;
22916;SDS011;11624;53.250;7.456;2023-08-12T09:28:08;38.00;;;24.48;;
22916;SDS011;11624;53.250;7.456;2023-08-12T09:30:37;39.20;;;24.40;;
22916;SDS011;11624;53.250;7.456;2023-08-12T09:33:06;38.47;;;24.13;;
22916;SDS011;11624;53.250;7.456;2023-08-12T09:35:38;40.13;;;25.27;;
22916;SDS011;11624;53.250;7.456;2023-08-12T09:38:10;41.47;;;24.95;;
22916;SDS011;11624;53.250;7.456;2023-08-12T09:40:40;39.45;;;24.88;;
22916;SDS011;11624;53.250;7.456;2023-08-12T09:43:10;37.65;;;24.98;;
22916;SDS011;11624;53.250;7.456;2023-08-12T09:45:40;41.17;;;25.70;;
22916;SDS011;11624;53.250;7.456;2023-08-12T09:48:09;42.83;;;26.35;;
22916;SDS011;11624;53.250;7.456;2023-08-12T09:50:38;41.67;;;25.40;;
22916;SDS011;11624;53.250;7.456;2023-08-12T09:53:09;37.15;;;25.40;;
22916;SDS011;11624;53.250;7.456;2023-08-12T09:55:37;38.08;;;23.85;;
22916;SDS011;11624;53.250;7.456;2023-08-12T09:58:08;38.65;;;23.17;;
22916;SDS011;11624;53.250;7.456;2023-08-12T10:00:38;39.40;;;24.98;;
22916;SDS011;11624;53.250;7.456;2023-08-12T10:03:08;35.92;;;21.25;;
22916;SDS011;11624;53.250;7.456;2023-08-12T10:05:41;32.47;;;22.02;;
22916;SDS011;11624;53.250;7.456;2023-08-12T10:08:12;34.58;;;22.67;;
22916;SDS011;11624;53.250;7.456;2023-08-12T10:10:42;33.80;;;22.00;;
22916;SDS011;11624;53.250;7.456;2023-08-12T10:13:18;28.42;;;19.23;;
22916;SDS011;11624;53.250;7.456;2023-08-12T10:15:49;28.08;;;18.25;;
22916;SDS011;11624;53.250;7.456;2023-08-12T10:18:18;28.88;;;18.23;;
22916;SDS011;11624;53.250;7.456;2023-08-12T10:20:48;26.33;;;16.20;;
22916;SDS011;11624;53.250;7.456;2023-08-12T10:23:19;24.60;;;15.00;;
22916;SDS011;11624;53.250;7.456;2023-08-12T10:25:48;29.17;;;16.42;;
22916;SDS011;11624;53.250;7.456;2023-08-12T10:28:20;27.17;;;15.27;;
22916;SDS011;11624;53.250;7.456;2023-08-12T10:30:50;25.00;;;15.98;;
22916;SDS011;11624;53.250;7.456;2023-08-12T10:33:20;26.60;;;15.63;;
22916;SDS011;11624;53.250;7.456;2023-08-12T10:35:49;27.40;;;15.38;;
22916;SDS011;11624;53.250;7.456;2023-08-12T10:38:19;26.15;;;14.88;;
22916;SDS011;11624;53.250;7.456;2023-08-12T10:40:48;24.52;;;14.63;;
22916;SDS011;11624;53.250;7.456;2023-08-12T10:43:16;22.80;;;12.50;;
22916;SDS011;11624;53.250;7.456;2023-08-12T10:45:46;20.58;;;11.88;;
22916;SDS011;11624;53.250;7.456;2023-08-12T10:48:16;18.55;;;11.05;;
22916;SDS011;11624;53.250;7.456;2023-08-12T10:50:48;19.15;;;9.43;;
22916;SDS011;11624;53.250;7.456;2023-08-12T10:53:22;18.40;;;9.45;;
22916;SDS011;11624;53.250;7.456;2023-08-12T10:55:56;17.05;;;8.52;;
22916;SDS011;11624;53.250;7.456;2023-08-12T10:58:29;18.00;;;7.53;;
22916;SDS011;11624;53.250;7.456;2023-08-12T11:01:01;20.48;;;7.10;;
22916;SDS011;11624;53.250;7.456;2023-08-12T11:03:31;15.23;;;6.38;;
22916;SDS011;11624;53.250;7.456;2023-08-12T11:06:05;14.55;;;6.82;;
22916;SDS011;11624;53.250;7.456;2023-08-12T11:08:35;13.52;;;6.07;;
22916;SDS011;11624;53.250;7.456;2023-08-12T11:11:04;14.15;;;6.00;;
22916;SDS011;11624;53.250;7.456;2023-08-12T11:13:51;12.98;;;5.57;;
22916;SDS011;11624;53.250;7.456;2023-08-12T11:16:21;14.70;;;5.90;;
22916;SDS011;11624;53.250;7.456;2023-08-12T11:18:59;12.52;;;5.43;;
22916;SDS011;11624;53.250;7.456;2023-08-12T11:21:28;14.75;;;5.80;;
22916;SDS011;11624;53.250;7.456;2023-08-12T11:23:58;15.02;;;5.75;;
22916;SDS011;11624;53.250;7.456;2023-08-12T11:26:27;11.88;;;5.78;;
22916;SDS011;11624;53.250;7.456;2023-08-12T11:28:56;12.63;;;6.55;;
22916;SDS011;11624;53.250;7.456;2023-08-12T11:31:24;15.02;;;6.03;;
22916;SDS011;11624;53.250;7.456;2023-08-12T11:33:54;15.25;;;5.75;;
22916;SDS011;11624;53.250;7.456;2023-08-12T11:36:22;13.40;;;6.72;;
22916;SDS011;11624;53.250;7.456;2023-08-12T11:38:51;15.95;;;6.32;;
22916;SDS011;11624;53.250;7.456;2023-08-12T11:41:23;12.40;;;6.53;;
22916;SDS011;11624;53.250;7.456;2023-08-12T11:43:51;12.90;;;5.82;;
22916;SDS011;11624;53.250;7.456;2023-08-12T11:46:20;12.25;;;5.97;;
22916;SDS011;11624;53.250;7.456;2023-08-12T11:48:48;12.98;;;5.80;;
22916;SDS011;11624;53.250;7.456;2023-08-12T11:51:17;12.13;;;5.03;;
22916;SDS011;11624;53.250;7.456;2023-08-12T11:53:46;11.45;;;4.20;;
22916;SDS011;11624;53.250;7.456;2023-08-12T11:56:14;12.68;;;4.65;;
22916;SDS011;11624;53.250;7.456;2023-08-12T11:58:44;9.95;;;4.10;;
22916;SDS011;11624;53.250;7.456;2023-08-12T12:01:19;11.60;;;4.30;;
22916;SDS011;11624;53.250;7.456;2023-08-12T12:03:50;10.07;;;4.35;;
22916;SDS011;11624;53.250;7.456;2023-08-12T12:06:27;9.70;;;3.83;;
22916;SDS011;11624;53.250;7.456;2023-08-12T12:09:03;9.07;;;4.15;;
22916;SDS011;11624;53.250;7.456;2023-08-12T12:11:36;8.98;;;3.50;;
22916;SDS011;11624;53.250;7.456;2023-08-12T12:14:07;8.68;;;3.65;;
22916;SDS011;11624;53.250;7.456;2023-08-12T12:16:37;9.18;;;3.92;;
22916;SDS011;11624;53.250;7.456;2023-08-12T12:19:13;9.45;;;4.05;;
22916;SDS011;11624;53.250;7.456;2023-08-12T12:21:44;8.93;;;3.47;;
22916;SDS011;11624;53.250;7.456;2023-08-12T12:24:14;5.45;;;2.67;;
22916;SDS011;11624;53.250;7.456;2023-08-12T12:26:44;5.25;;;2.38;;
22916;SDS011;11624;53.250;7.456;2023-08-12T12:29:14;5.68;;;2.40;;
22916;SDS011;11624;53.250;7.456;2023-08-12T12:31:43;5.88;;;2.70;;
22916;SDS011;11624;53.250;7.456;2023-08-12T12:34:11;5.57;;;2.42;;
22916;SDS011;11624;53.250;7.456;2023-08-12T12:36:41;6.68;;;2.60;;
22916;SDS011;11624;53.250;7.456;2023-08-12T12:39:09;7.22;;;2.70;;
22916;SDS011;11624;53.250;7.456;2023-08-12T12:41:38;6.65;;;2.90;;
22916;SDS011;11624;53.250;7.456;2023-08-12T12:44:07;10.68;;;3.00;;
22916;SDS011;11624;53.250;7.456;2023-08-12T12:46:37;8.18;;;3.35;;
22916;SDS011;11624;53.250;7.456;2023-08-12T12:49:05;8.70;;;3.78;;
22916;SDS011;11624;53.250;7.456;2023-08-12T12:51:34;9.05;;;3.58;;
22916;SDS011;11624;53.250;7.456;2023-08-12T12:54:02;8.90;;;3.60;;
22916;SDS011;11624;53.250;7.456;2023-08-12T12:56:31;8.60;;;3.45;;
22916;SDS011;11624;53.250;7.456;2023-08-12T12:58:59;6.40;;;2.92;;
22916;SDS011;11624;53.250;7.456;2023-08-12T13:01:28;9.75;;;3.55;;
22916;SDS011;11624;53.250;7.456;2023-08-12T13:03:58;8.00;;;3.33;;
22916;SDS011;11624;53.250;7.456;2023-08-12T13:06:26;9.40;;;3.92;;
22916;SDS011;11624;53.250;7.456;2023-08-12T13:08:54;10.10;;;3.45;;
22916;SDS011;11624;53.250;7.456;2023-08-12T13:11:23;9.60;;;3.17;;
22916;SDS011;11624;53.250;7.456;2023-08-12T13:13:51;7.38;;;3.20;;
22916;SDS011;11624;53.250;7.456;2023-08-12T13:16:20;7.63;;;3.20;;
22916;SDS011;11624;53.250;7.456;2023-08-12T13:18:49;8.98;;;3.92;;
22916;SDS011;11624;53.250;7.456;2023-08-12T13:21:19;9.30;;;3.92;;
22916;SDS011;11624;53.250;7.456;2023-08-12T13:23:47;8.50;;;3.30;;
22916;SDS011;11624;53.250;7.456;2023-08-12T13:26:15;7.00;;;3.00;;
22916;SDS011;11624;53.250;7.456;2023-08-12T13:28:44;7.57;;;2.72;;
22916;SDS011;11624;53.250;7.456;2023-08-12T13:31:13;6.63;;;2.55;;
22916;SDS011;11624;53.250;7.456;2023-08-12T13:33:42;2.70;;;1.60;;
22916;SDS011;11624;53.250;7.456;2023-08-12T13:36:11;4.53;;;2.15;;
22916;SDS011;11624;53.250;7.456;2023-08-12T13:38:41;4.93;;;1.70;;
22916;SDS011;11624;53.250;7.456;2023-08-12T13:41:09;2.58;;;1.63;;
22916;SDS011;11624;53.250;7.456;2023-08-12T13:43:37;2.55;;;1.30;;
22916;SDS011;11624;53.250;7.456;2023-08-12T13:46:06;2.15;;;1.25;;
22916;SDS011;11624;53.250;7.456;2023-08-12T13:48:35;2.13;;;1.20;;
22916;SDS011;11624;53.250;7.456;2023-08-12T13:51:06;2.83;;;1.20;;
22916;SDS011;11624;53.250;7.456;2023-08-12T13:53:35;4.40;;;1.67;;
22916;SDS011;11624;53.250;7.456;2023-08-12T13:56:05;6.40;;;2.13;;
22916;SDS011;11624;53.250;7.456;2023-08-12T13:58:33;6.57;;;2.60;;
22916;SDS011;11624;53.250;7.456;2023-08-12T14:01:01;7.70;;;2.97;;
22916;SDS011;11624;53.250;7.456;2023-08-12T14:03:31;11.05;;;3.20;;
22916;SDS011;11624;53.250;7.456;2023-08-12T14:06:00;10.10;;;3.33;;
22916;SDS011;11624;53.250;7.456;2023-08-12T14:08:29;13.50;;;3.80;;
22916;SDS011;11624;53.250;7.456;2023-08-12T14:10:57;14.10;;;4.93;;
22916;SDS011;11624;53.250;7.456;2023-08-12T14:13:27;12.63;;;3.97;;
22916;SDS011;11624;53.250;7.456;2023-08-12T14:15:55;11.80;;;3.80;;
22916;SDS011;11624;53.250;7.456;2023-08-12T14:18:24;9.50;;;3.70;;
22916;SDS011;11624;53.250;7.456;2023-08-12T14:20:52;9.18;;;3.38;;
22916;SDS011;11624;53.250;7.456;2023-08-12T14:23:21;15.30;;;3.78;;
22916;SDS011;11624;53.250;7.456;2023-08-12T14:25:49;6.20;;;2.78;;
22916;SDS011;11624;53.250;7.456;2023-08-12T14:28:18;11.20;;;2.78;;
22916;SDS011;11624;53.250;7.456;2023-08-12T14:30:48;6.25;;;2.47;;
22916;SDS011;11624;53.250;7.456;2023-08-12T14:33:16;7.90;;;2.70;;
22916;SDS011;11624;53.250;7.456;2023-08-12T14:35:44;8.70;;;2.33;;
22916;SDS011;11624;53.250;7.456;2023-08-12T14:38:13;6.78;;;2.30;;
22916;SDS011;11624;53.250;7.456;2023-08-12T14:40:41;7.07;;;2.20;;
22916;SDS011;11624;53.250;7.456;2023-08-12T14:43:10;9.63;;;2.30;;
22916;SDS011;11624;53.250;7.456;2023-08-12T14:45:38;7.43;;;2.35;;
22916;SDS011;11624;53.250;7.456;2023-08-12T14:48:08;6.32;;;2.33;;
22916;SDS011;11624;53.250;7.456;2023-08-12T14:50:37;10.23;;;2.20;;
22916;SDS011;11624;53.250;7.456;2023-08-12T14:53:05;8.73;;;2.47;;